Airfield :
LOGIN :

Register | Disclaimer

   EN    FR    IT 

 










Legend :    VFR   Marginal VFR   IFR   Intensive IFR   Very Intensive IFR
Visi :
Ceiling :
>= 8 km
>= 3000ft
5 to 8 km
1000 to 3000 ft
1500m to 5 km
500 to 1000 ft
800 to 1500m
200 to 500 ft
< 800m
< 200 ft
Symbols :   Thunderstorms  Fog  Heavy snow  Heavy precipitations  Wind > 20 kt
SIGMETs :     Misc.  Thunderstorms  Icing  Turbulence  Mountain Waves  Volcanic Ashes







- Airport Elevation : 49 ft
- IATA code : GLZ


EHGR - Gilze-Rijen Airbase

CURRENT METAR :
  • 252125Z AUTO 34009KT 290V050 9999 OVC027 07/03 Q1030 BLU 33010KT 9999 OVC030

EXPIRED METARs :
  • 252107Z AUTO 33008KT 280V040 9999 FEW021 OVC027 07/03 Q1030 BLU 33007KT 9999 FEW020 OVC030
  • 252058Z AUTO 34008KT 290V060 9999 FEW021 BKN024 OVC027 07/03 Q1030 WHT 33007KT 9999 FEW020 OVC030
  • 252037Z AUTO 34010KT 280V030 9999 SCT024 OVC028 07/04 Q1030 WHT 33010KT 9999 FEW030
  • 252025Z AUTO 34008KT 290V020 9999 FEW026 OVC029 07/04 Q1030 BLU 33010KT 9999 FEW030
  • 252007Z AUTO 34009KT 290V030 9999 FEW023 BKN028 OVC031 07/04 Q1030 BLU 33010KT 9999 FEW030
  • 251955Z AUTO 34011KT 290V040 9999 FEW029 SCT032 07/04 Q1029 BLU 33010KT 9999 FEW030
  • 251930Z AUTO 34008KT 290V030 9999 FEW035 07/04 Q1029 BLU 33010KT 9999 FEW035
  • 251857Z AUTO 34010KT 280V040 9999 FEW028 BKN034 08/04 Q1029 BLU 33010KT 9999 FEW025 BKN030

TAF TAF EHGR
Valid from the 25 at 18:00 until the 26 at 06:00 UTC


251731Z 2518/2606 34010KT 9999 SCT025 BKN035
No reported NOTAMs for that airfield.



MET'MAP, your aeronautical weather chart ! - Copyright ORBIFLY December 2007 - Disclaimer

ORBIFLY MET'MAP TEAM :

Programming & Development : Alexandra Zaïnal
Concept & Development : Baudouin d'Aumeries
Co-Development & Prog : Marc-Olivier Méhu
Technical & hardware support : Manuel Goepfert

Contact : metmap@orbifly.com




SOURCES & CREDITS :

   NOAA